createdAt,value
2023-06-07T00:00:22.430Z,10.97
2023-06-07T00:02:49.141Z,11.00
2023-06-07T00:05:16.051Z,11.04
2023-06-07T00:07:43.133Z,11.14
2023-06-07T00:10:10.311Z,11.10
2023-06-07T00:12:37.157Z,11.04
2023-06-07T00:15:04.833Z,11.03
2023-06-07T00:17:31.566Z,11.21
2023-06-07T00:19:58.250Z,11.34
2023-06-07T00:22:24.834Z,11.29
2023-06-07T00:24:52.760Z,11.11
2023-06-07T00:27:19.794Z,11.17
2023-06-07T00:29:46.389Z,11.11
2023-06-07T00:32:13.570Z,10.94
2023-06-07T00:34:40.104Z,10.95
2023-06-07T00:37:06.667Z,11.03
2023-06-07T00:39:33.284Z,11.10
2023-06-07T00:41:59.900Z,11.14
2023-06-07T00:44:26.405Z,11.03
2023-06-07T00:46:53.292Z,10.87
2023-06-07T00:49:20.041Z,10.86
2023-06-07T00:51:47.456Z,10.86
2023-06-07T00:54:18.258Z,10.74
2023-06-07T00:56:50.504Z,10.73
2023-06-07T00:59:21.439Z,10.70
2023-06-07T01:01:49.828Z,10.66
2023-06-07T01:04:20.516Z,10.72
2023-06-07T01:06:48.048Z,10.60
2023-06-07T01:09:16.030Z,10.53
2023-06-07T01:11:46.181Z,10.49
2023-06-07T01:14:13.382Z,10.51
2023-06-07T01:16:40.985Z,10.66
2023-06-07T01:19:07.657Z,10.68
2023-06-07T01:21:38.031Z,10.59
2023-06-07T01:24:05.000Z,10.45
2023-06-07T01:26:32.978Z,10.40
2023-06-07T01:29:06.861Z,10.45
2023-06-07T01:31:36.741Z,10.45
2023-06-07T01:34:05.416Z,10.38
2023-06-07T01:36:32.677Z,10.25
2023-06-07T01:39:01.484Z,10.20
2023-06-07T01:41:30.109Z,10.03
2023-06-07T01:43:58.674Z,10.11
2023-06-07T01:46:26.557Z,10.28
2023-06-07T01:48:54.610Z,10.25
2023-06-07T01:51:21.051Z,10.25
2023-06-07T01:53:50.972Z,10.24
2023-06-07T01:56:29.652Z,10.18
2023-06-07T01:59:19.968Z,10.22
2023-06-07T02:01:54.540Z,10.13
2023-06-07T02:04:22.085Z,10.20
2023-06-07T02:06:51.848Z,10.09
2023-06-07T02:09:21.131Z,10.06
2023-06-07T02:11:47.919Z,10.01
2023-06-07T02:14:14.504Z,9.99
2023-06-07T02:16:42.576Z,10.08
2023-06-07T02:19:10.351Z,10.23
2023-06-07T02:21:49.528Z,10.11
2023-06-07T02:24:17.302Z,10.00
2023-06-07T02:26:44.630Z,9.96
2023-06-07T02:29:12.638Z,9.94
2023-06-07T02:31:39.208Z,10.05
2023-06-07T02:34:06.616Z,10.03
2023-06-07T02:36:34.375Z,9.99
2023-06-07T02:39:03.872Z,9.94
2023-06-07T02:41:30.434Z,10.01
2023-06-07T02:43:56.993Z,10.02
2023-06-07T02:46:23.475Z,9.89
2023-06-07T02:48:50.533Z,9.84
2023-06-07T02:51:17.162Z,9.88
2023-06-07T02:53:45.428Z,9.82
2023-06-07T02:56:12.953Z,9.78
2023-06-07T02:58:39.566Z,9.63
2023-06-07T03:01:09.868Z,9.67
2023-06-07T03:03:44.126Z,9.64
2023-06-07T03:06:12.934Z,9.60
2023-06-07T03:08:40.090Z,9.52
2023-06-07T03:11:07.957Z,9.52
2023-06-07T03:13:38.537Z,9.54
2023-06-07T03:16:08.971Z,9.35
2023-06-07T03:18:45.415Z,9.31
2023-06-07T03:21:12.382Z,9.24
2023-06-07T03:23:40.127Z,9.34
2023-06-07T03:26:08.422Z,9.33
2023-06-07T03:28:35.682Z,9.36
2023-06-07T03:31:04.217Z,9.36
2023-06-07T03:33:40.202Z,9.44
2023-06-07T03:36:08.467Z,9.42
2023-06-07T03:38:36.706Z,9.52
2023-06-07T03:41:04.057Z,9.41
2023-06-07T03:43:36.000Z,9.40
2023-06-07T03:46:02.546Z,9.47
2023-06-07T03:48:29.454Z,9.46
2023-06-07T03:50:57.172Z,9.42
2023-06-07T03:53:23.782Z,9.50
2023-06-07T03:55:50.802Z,9.57
2023-06-07T03:58:19.511Z,9.61
2023-06-07T04:00:48.354Z,9.63
2023-06-07T04:03:15.328Z,9.70
2023-06-07T04:05:41.938Z,9.74
2023-06-07T04:08:10.886Z,9.74
2023-06-07T04:10:37.458Z,9.87
2023-06-07T04:13:03.893Z,9.88
2023-06-07T04:15:32.234Z,9.85
2023-06-07T04:17:58.795Z,9.86
2023-06-07T04:20:25.862Z,9.87
2023-06-07T04:22:53.201Z,9.91
2023-06-07T04:25:26.977Z,10.00
2023-06-07T04:28:00.474Z,10.01
2023-06-07T04:30:35.465Z,10.10
2023-06-07T04:33:10.044Z,10.22
2023-06-07T04:35:43.831Z,10.33
2023-06-07T04:38:16.585Z,10.46
2023-06-07T04:40:50.335Z,10.51
2023-06-07T04:43:24.902Z,10.60
2023-06-07T04:45:58.130Z,10.70
2023-06-07T04:48:29.012Z,10.82
2023-06-07T04:51:04.138Z,11.00
2023-06-07T04:53:37.228Z,11.10
2023-06-07T04:56:05.405Z,11.15
2023-06-07T04:58:32.730Z,11.26
2023-06-07T05:01:01.986Z,11.35
2023-06-07T05:03:28.654Z,11.52
2023-06-07T05:05:56.634Z,11.56
2023-06-07T05:08:24.572Z,11.69
2023-06-07T05:10:51.869Z,11.81
2023-06-07T05:13:19.105Z,11.93
2023-06-07T05:15:45.741Z,12.02
2023-06-07T05:18:13.553Z,12.09
2023-06-07T05:20:41.068Z,12.21
2023-06-07T05:23:07.606Z,12.34
2023-06-07T05:25:37.557Z,12.49
2023-06-07T05:28:13.176Z,12.64
2023-06-07T05:30:44.314Z,12.89
2023-06-07T05:33:12.223Z,13.21
2023-06-07T05:35:38.873Z,13.44
2023-06-07T05:38:05.467Z,13.62
2023-06-07T05:40:31.993Z,13.74
2023-06-07T05:42:58.541Z,13.82
2023-06-07T05:45:26.329Z,13.93
2023-06-07T05:47:52.955Z,14.01
2023-06-07T05:50:21.996Z,14.10
2023-06-07T05:52:57.187Z,14.20
2023-06-07T05:55:27.994Z,14.24
2023-06-07T05:57:56.027Z,14.28
2023-06-07T06:00:23.517Z,14.36
2023-06-07T06:02:51.257Z,14.43
2023-06-07T06:05:18.435Z,14.56
2023-06-07T06:07:45.043Z,14.72
2023-06-07T06:10:12.399Z,14.81
2023-06-07T06:12:39.022Z,14.87
2023-06-07T06:15:06.518Z,14.83
2023-06-07T06:17:33.061Z,14.85
2023-06-07T06:19:59.728Z,14.98
2023-06-07T06:22:26.786Z,15.08
2023-06-07T06:24:53.291Z,14.93
2023-06-07T06:27:21.794Z,14.92
2023-06-07T06:29:48.444Z,14.93
2023-06-07T06:32:14.939Z,15.01
2023-06-07T06:34:41.460Z,15.11
2023-06-07T06:37:07.986Z,15.12
2023-06-07T06:39:34.539Z,15.27
2023-06-07T06:42:01.101Z,15.39
2023-06-07T06:44:46.298Z,15.55
2023-06-07T06:47:16.059Z,15.62
2023-06-07T06:49:42.707Z,15.68
2023-06-07T06:52:09.170Z,15.69
2023-06-07T06:54:35.729Z,15.79
2023-06-07T06:57:02.271Z,15.85
2023-06-07T06:59:28.894Z,15.95
2023-06-07T07:01:57.689Z,16.02
2023-06-07T07:04:24.343Z,16.22
2023-06-07T07:06:51.031Z,16.31
2023-06-07T07:09:17.549Z,16.42
2023-06-07T07:11:44.148Z,16.30
2023-06-07T07:14:10.673Z,16.16
2023-06-07T07:16:39.230Z,16.35
2023-06-07T07:19:06.093Z,16.42
2023-06-07T07:21:32.592Z,16.54
2023-06-07T07:23:59.116Z,16.57
2023-06-07T07:26:27.099Z,16.66
2023-06-07T07:28:54.320Z,16.73
2023-06-07T07:31:22.150Z,16.88
2023-06-07T07:33:48.893Z,16.93
2023-06-07T07:36:17.310Z,17.01
2023-06-07T07:38:47.030Z,17.03
2023-06-07T07:41:15.319Z,17.10
2023-06-07T07:43:41.876Z,17.17
2023-06-07T07:46:08.478Z,17.22
2023-06-07T07:48:35.137Z,17.37
2023-06-07T07:51:03.162Z,17.43
2023-06-07T07:53:29.798Z,17.50
2023-06-07T07:55:56.649Z,17.61
2023-06-07T07:58:23.226Z,17.63
2023-06-07T08:00:49.707Z,17.57
2023-06-07T08:03:16.538Z,17.68
2023-06-07T08:05:43.182Z,17.84
2023-06-07T08:08:09.683Z,17.97
2023-06-07T08:10:37.821Z,17.85
2023-06-07T08:13:04.297Z,17.89
2023-06-07T08:15:32.622Z,18.20
2023-06-07T08:17:59.176Z,18.35
2023-06-07T08:20:25.707Z,18.29
2023-06-07T08:22:52.245Z,18.28
2023-06-07T08:25:19.225Z,18.62
2023-06-07T08:27:47.106Z,18.61
2023-06-07T08:30:14.085Z,18.59
2023-06-07T08:32:41.037Z,18.60
2023-06-07T08:35:08.883Z,18.56
2023-06-07T08:37:35.731Z,18.61
2023-06-07T08:40:02.713Z,18.65
2023-06-07T08:42:29.970Z,18.85
2023-06-07T08:44:56.508Z,18.84
2023-06-07T08:47:24.843Z,19.00
2023-06-07T08:49:56.643Z,19.12
2023-06-07T08:52:26.676Z,19.04
2023-06-07T08:55:00.468Z,19.25
2023-06-07T08:57:29.681Z,19.38
2023-06-07T08:59:56.520Z,19.47
2023-06-07T09:02:25.406Z,19.35
2023-06-07T09:04:52.484Z,19.29
2023-06-07T09:07:19.052Z,19.41
2023-06-07T09:09:46.002Z,19.39
2023-06-07T09:12:12.722Z,19.42
2023-06-07T09:14:39.377Z,19.61
2023-06-07T09:17:06.093Z,19.75
2023-06-07T09:19:42.990Z,20.04
2023-06-07T09:22:15.450Z,19.97
2023-06-07T09:24:43.278Z,20.23
2023-06-07T09:27:14.039Z,20.54
2023-06-07T09:29:42.654Z,20.76
2023-06-07T09:32:27.863Z,20.12
2023-06-07T09:35:12.161Z,20.46
2023-06-07T09:37:45.077Z,20.76
2023-06-07T09:40:12.570Z,20.60
2023-06-07T09:42:39.556Z,20.56
2023-06-07T09:45:15.394Z,20.95
2023-06-07T09:47:43.433Z,20.85
2023-06-07T09:50:12.641Z,21.14
2023-06-07T09:52:39.814Z,21.23
2023-06-07T09:55:26.495Z,21.46
2023-06-07T09:57:53.165Z,21.54
2023-06-07T10:00:20.479Z,21.47
2023-06-07T10:02:48.323Z,21.29
2023-06-07T10:05:22.295Z,21.22
2023-06-07T10:07:51.687Z,21.12
2023-06-07T10:10:23.060Z,20.92
2023-06-07T10:12:52.283Z,20.86
2023-06-07T10:15:25.028Z,20.79
2023-06-07T10:17:58.625Z,20.95
2023-06-07T10:20:29.652Z,21.14
2023-06-07T10:23:04.723Z,21.27
2023-06-07T10:25:36.218Z,21.26
2023-06-07T10:28:13.170Z,21.28
2023-06-07T10:30:45.583Z,21.33
2023-06-07T10:33:13.627Z,20.70
2023-06-07T10:35:40.887Z,21.11
2023-06-07T10:38:07.580Z,21.28
2023-06-07T10:40:35.124Z,21.63
2023-06-07T10:43:02.409Z,21.61
2023-06-07T10:45:29.019Z,21.84
2023-06-07T10:47:56.211Z,22.02
2023-06-07T10:50:28.665Z,22.25
2023-06-07T10:52:56.709Z,21.76
2023-06-07T10:55:34.644Z,21.80
2023-06-07T10:58:01.389Z,21.78
2023-06-07T11:00:30.871Z,21.91
2023-06-07T11:03:06.561Z,21.82
2023-06-07T11:06:06.618Z,21.71
2023-06-07T11:08:37.429Z,21.65
2023-06-07T11:11:05.789Z,21.87
2023-06-07T11:13:44.456Z,21.94
2023-06-07T11:16:26.984Z,22.11
2023-06-07T11:18:55.488Z,22.17
2023-06-07T11:21:27.121Z,22.23
2023-06-07T11:24:14.942Z,22.31
2023-06-07T11:26:41.774Z,22.07
2023-06-07T11:29:11.455Z,21.95
2023-06-07T11:31:38.558Z,22.15
2023-06-07T11:34:05.361Z,22.45
2023-06-07T11:36:33.025Z,22.21
2023-06-07T11:39:03.149Z,22.11
2023-06-07T11:41:29.713Z,22.18
2023-06-07T11:43:57.663Z,22.49
2023-06-07T11:46:24.301Z,22.50
2023-06-07T11:48:50.905Z,22.73
2023-06-07T11:51:18.261Z,22.70
2023-06-07T11:53:48.484Z,22.73
2023-06-07T11:56:15.433Z,22.78
2023-06-07T11:58:41.961Z,22.96
2023-06-07T12:01:09.089Z,22.98
2023-06-07T12:03:35.957Z,23.10
2023-06-07T12:06:02.946Z,23.02
2023-06-07T12:08:32.347Z,22.63
2023-06-07T12:10:58.840Z,22.90
2023-06-07T12:13:25.530Z,23.33
2023-06-07T12:15:57.024Z,23.18
2023-06-07T12:18:31.609Z,23.10
2023-06-07T12:21:05.106Z,23.09
2023-06-07T12:23:37.067Z,23.03
2023-06-07T12:26:08.753Z,22.68
2023-06-07T12:28:36.172Z,23.07
2023-06-07T12:31:02.779Z,23.15
2023-06-07T12:33:32.335Z,23.20
2023-06-07T12:35:59.488Z,22.93
2023-06-07T12:38:26.627Z,22.72
2023-06-07T12:40:53.193Z,23.24
2023-06-07T12:43:20.018Z,23.51
2023-06-07T12:45:46.462Z,23.49
2023-06-07T12:48:13.786Z,23.65
2023-06-07T12:50:40.376Z,23.85
2023-06-07T12:53:07.073Z,24.07
2023-06-07T12:55:33.586Z,24.18
2023-06-07T12:58:00.425Z,24.65
2023-06-07T13:00:27.093Z,24.63
2023-06-07T13:02:53.813Z,24.27
2023-06-07T13:05:21.483Z,23.94
2023-06-07T13:07:48.013Z,23.76
2023-06-07T13:10:14.539Z,23.94
2023-06-07T13:12:41.267Z,24.33
2023-06-07T13:15:08.450Z,24.59
2023-06-07T13:17:35.761Z,24.23
2023-06-07T13:20:02.991Z,24.36
2023-06-07T13:22:32.103Z,24.79
2023-06-07T13:24:59.381Z,25.07
2023-06-07T13:27:27.940Z,25.31
2023-06-07T13:29:56.317Z,25.94
2023-06-07T13:32:23.267Z,26.82
2023-06-07T13:34:49.786Z,25.73
2023-06-07T13:37:16.372Z,25.19
2023-06-07T13:39:42.914Z,25.70
2023-06-07T13:42:09.455Z,25.13
2023-06-07T13:44:35.962Z,24.31
2023-06-07T13:47:03.929Z,25.29
2023-06-07T13:49:30.590Z,26.43
2023-06-07T13:51:57.400Z,26.40
2023-06-07T13:54:23.956Z,26.02
2023-06-07T13:56:51.269Z,25.74
2023-06-07T13:59:18.124Z,25.38
2023-06-07T14:01:45.342Z,25.93
2023-06-07T14:04:12.120Z,26.88
2023-06-07T14:06:43.269Z,27.62
2023-06-07T14:09:10.114Z,27.98
2023-06-07T14:11:38.749Z,28.50
2023-06-07T14:14:05.382Z,28.17
2023-06-07T14:16:31.993Z,29.14
2023-06-07T14:18:58.528Z,28.48
2023-06-07T14:21:25.320Z,28.90
2023-06-07T14:23:51.826Z,27.98
2023-06-07T14:26:18.374Z,27.22
2023-06-07T14:28:45.032Z,27.27
2023-06-07T14:31:12.107Z,27.99
2023-06-07T14:33:38.763Z,28.71
2023-06-07T14:36:06.152Z,28.07
2023-06-07T14:38:32.782Z,28.53
2023-06-07T14:40:59.650Z,28.53
2023-06-07T14:43:27.673Z,28.50
2023-06-07T14:45:54.184Z,28.63
2023-06-07T14:48:20.756Z,28.99
2023-06-07T14:50:47.274Z,27.89
2023-06-07T14:53:13.847Z,26.62
2023-06-07T14:55:40.383Z,26.13
2023-06-07T14:58:07.164Z,27.00
2023-06-07T15:00:34.776Z,27.83
2023-06-07T15:03:01.425Z,28.64
2023-06-07T15:05:29.316Z,29.49
2023-06-07T15:07:56.690Z,29.68
2023-06-07T15:10:23.244Z,29.10
2023-06-07T15:12:49.696Z,29.40
2023-06-07T15:15:18.827Z,29.81
2023-06-07T15:17:47.740Z,29.29
2023-06-07T15:20:16.957Z,30.26
2023-06-07T15:22:43.524Z,29.66
2023-06-07T15:25:10.067Z,30.18
2023-06-07T15:27:37.401Z,30.23
2023-06-07T15:30:05.220Z,30.30
2023-06-07T15:32:32.603Z,29.76
2023-06-07T15:34:59.830Z,29.99
2023-06-07T15:37:26.306Z,30.07
2023-06-07T15:39:52.859Z,30.09
2023-06-07T15:42:19.439Z,30.48
2023-06-07T15:44:46.510Z,30.11
2023-06-07T15:47:15.328Z,30.26
2023-06-07T15:49:41.916Z,30.03
2023-06-07T15:52:08.439Z,29.93
2023-06-07T15:54:35.191Z,29.55
2023-06-07T15:57:01.701Z,29.48
2023-06-07T15:59:28.202Z,29.95
2023-06-07T16:01:54.732Z,30.17
2023-06-07T16:04:21.291Z,30.47
2023-06-07T16:06:48.250Z,30.31
2023-06-07T16:09:14.784Z,29.99
2023-06-07T16:11:43.080Z,30.46
2023-06-07T16:14:10.858Z,29.92
2023-06-07T16:16:38.310Z,30.21
2023-06-07T16:19:06.142Z,30.33
2023-06-07T16:21:34.309Z,30.34
2023-06-07T16:24:03.349Z,30.67
2023-06-07T16:26:29.962Z,31.12
2023-06-07T16:28:56.481Z,31.03
2023-06-07T16:31:23.992Z,30.65
2023-06-07T16:33:50.768Z,31.31
2023-06-07T16:36:18.204Z,30.95
2023-06-07T16:38:44.827Z,30.19
2023-06-07T16:41:11.363Z,30.01
2023-06-07T16:43:37.826Z,30.72
2023-06-07T16:46:04.364Z,30.70
2023-06-07T16:48:30.896Z,29.83
2023-06-07T16:50:57.509Z,30.21
2023-06-07T16:53:24.090Z,30.41
2023-06-07T16:55:50.658Z,30.27
2023-06-07T16:58:17.210Z,29.56
2023-06-07T17:00:43.766Z,29.19
2023-06-07T17:03:10.441Z,29.13
2023-06-07T17:05:36.963Z,28.16
2023-06-07T17:08:03.620Z,27.18
2023-06-07T17:10:31.725Z,26.58
2023-06-07T17:12:58.310Z,26.43
2023-06-07T17:15:25.064Z,25.22
2023-06-07T17:17:51.624Z,24.57
2023-06-07T17:20:18.165Z,24.48
2023-06-07T17:22:44.755Z,24.56
2023-06-07T17:25:12.289Z,24.44
2023-06-07T17:27:38.790Z,24.54
2023-06-07T17:30:07.704Z,24.35
2023-06-07T17:32:34.520Z,24.16
2023-06-07T17:35:01.116Z,24.11
2023-06-07T17:37:27.640Z,24.07
2023-06-07T17:39:54.836Z,23.89
2023-06-07T17:42:22.195Z,23.78
2023-06-07T17:44:51.067Z,23.69
2023-06-07T17:47:17.720Z,23.21
2023-06-07T17:49:44.219Z,23.28
2023-06-07T17:52:21.698Z,23.12
2023-06-07T17:54:49.842Z,23.09
2023-06-07T17:57:16.527Z,23.09
2023-06-07T17:59:43.173Z,23.13
2023-06-07T18:02:10.757Z,22.92
2023-06-07T18:04:38.552Z,22.74
2023-06-07T18:07:05.683Z,22.42
2023-06-07T18:09:32.210Z,22.26
2023-06-07T18:11:59.233Z,22.03
2023-06-07T18:14:25.982Z,21.94
2023-06-07T18:16:52.522Z,21.90
2023-06-07T18:19:20.601Z,21.82
2023-06-07T18:21:47.339Z,21.71
2023-06-07T18:24:14.194Z,21.50
2023-06-07T18:26:40.911Z,20.99
2023-06-07T18:29:07.479Z,20.76
2023-06-07T18:31:34.100Z,20.49
2023-06-07T18:34:00.938Z,20.49
2023-06-07T18:36:27.420Z,20.62
2023-06-07T18:38:53.913Z,20.75
2023-06-07T18:41:20.495Z,20.88
2023-06-07T18:43:47.198Z,20.96
2023-06-07T18:46:13.853Z,20.91
2023-06-07T18:48:40.382Z,20.83
2023-06-07T18:51:06.966Z,20.57
2023-06-07T18:53:33.581Z,20.13
2023-06-07T18:56:00.315Z,19.50
2023-06-07T18:58:27.077Z,19.06
2023-06-07T19:00:54.299Z,18.48
2023-06-07T19:03:22.448Z,18.40
2023-06-07T19:05:49.118Z,18.20
2023-06-07T19:08:15.678Z,18.05
2023-06-07T19:10:42.231Z,18.01
2023-06-07T19:13:08.779Z,17.61
2023-06-07T19:15:35.267Z,17.46
2023-06-07T19:18:05.871Z,17.41
2023-06-07T19:20:34.615Z,17.45
2023-06-07T19:23:01.309Z,17.27
2023-06-07T19:25:27.984Z,17.16
2023-06-07T19:27:54.549Z,16.97
2023-06-07T19:30:21.157Z,17.01
2023-06-07T19:32:47.787Z,16.69
2023-06-07T19:35:14.457Z,16.37
2023-06-07T19:37:41.030Z,16.24
2023-06-07T19:40:08.986Z,16.22
2023-06-07T19:42:37.693Z,16.30
2023-06-07T19:45:05.162Z,16.40
2023-06-07T19:47:34.879Z,16.54
2023-06-07T19:50:03.062Z,16.55
2023-06-07T19:52:30.438Z,16.43
2023-06-07T19:54:57.031Z,16.32
2023-06-07T19:57:23.702Z,16.40
2023-06-07T19:59:50.316Z,16.21
2023-06-07T20:02:17.128Z,16.36
2023-06-07T20:04:44.138Z,16.41
2023-06-07T20:07:11.941Z,16.36
2023-06-07T20:09:40.335Z,16.58
2023-06-07T20:12:08.743Z,16.67
2023-06-07T20:14:36.472Z,16.74
2023-06-07T20:17:03.016Z,16.79
2023-06-07T20:19:30.225Z,16.80
2023-06-07T20:21:58.853Z,16.59
2023-06-07T20:24:25.467Z,16.48
2023-06-07T20:26:52.025Z,16.52
2023-06-07T20:29:19.197Z,16.58
2023-06-07T20:31:47.320Z,16.46
2023-06-07T20:34:17.000Z,16.51
2023-06-07T20:36:44.030Z,16.58
2023-06-07T20:39:11.136Z,16.65
2023-06-07T20:41:37.862Z,16.59
2023-06-07T20:44:07.983Z,16.57
2023-06-07T20:46:35.539Z,16.44
2023-06-07T20:49:08.039Z,16.12
2023-06-07T20:51:37.167Z,15.81
2023-06-07T20:54:04.721Z,15.70
2023-06-07T20:56:31.391Z,15.74
2023-06-07T20:58:57.885Z,15.61
2023-06-07T21:01:24.426Z,15.80
2023-06-07T21:03:52.044Z,15.62
2023-06-07T21:06:18.901Z,15.70
2023-06-07T21:08:45.447Z,15.70
2023-06-07T21:11:12.092Z,15.78
2023-06-07T21:13:38.673Z,15.71
2023-06-07T21:16:05.608Z,15.75
2023-06-07T21:18:32.127Z,15.71
2023-06-07T21:20:58.601Z,15.71
2023-06-07T21:23:25.166Z,15.90
2023-06-07T21:25:51.752Z,15.89
2023-06-07T21:28:18.330Z,15.97
2023-06-07T21:30:45.558Z,15.96
2023-06-07T21:33:13.768Z,15.72
2023-06-07T21:35:40.945Z,15.52
2023-06-07T21:38:07.517Z,15.52
2023-06-07T21:40:34.252Z,15.37
2023-06-07T21:43:02.960Z,15.30
2023-06-07T21:45:29.609Z,15.20
2023-06-07T21:47:56.356Z,15.14
2023-06-07T21:50:23.120Z,15.01
2023-06-07T21:52:51.854Z,14.96
2023-06-07T21:55:18.492Z,15.03
2023-06-07T21:57:46.129Z,15.11
2023-06-07T22:00:14.056Z,15.12
2023-06-07T22:02:41.443Z,15.12
2023-06-07T22:05:08.725Z,14.82
2023-06-07T22:07:35.315Z,14.73
2023-06-07T22:10:02.493Z,14.62
2023-06-07T22:12:30.311Z,14.54
2023-06-07T22:15:03.234Z,14.53
2023-06-07T22:17:29.869Z,14.63
2023-06-07T22:19:57.535Z,14.68
2023-06-07T22:22:24.235Z,14.74
2023-06-07T22:24:50.882Z,14.86
2023-06-07T22:27:17.375Z,14.65
2023-06-07T22:29:47.323Z,14.61
2023-06-07T22:32:15.326Z,14.40
2023-06-07T22:34:45.762Z,14.25
2023-06-07T22:37:13.947Z,14.18
2023-06-07T22:39:42.291Z,14.04
2023-06-07T22:42:08.795Z,13.97
2023-06-07T22:44:36.987Z,14.07
2023-06-07T22:47:05.553Z,14.02
2023-06-07T22:49:33.210Z,13.91
2023-06-07T22:52:00.117Z,13.85
2023-06-07T22:54:30.247Z,14.02
2023-06-07T22:56:57.347Z,14.10
2023-06-07T22:59:23.972Z,14.26
2023-06-07T23:01:51.924Z,14.37
2023-06-07T23:04:19.680Z,14.26
2023-06-07T23:06:47.425Z,14.11
2023-06-07T23:09:13.927Z,14.10
2023-06-07T23:11:42.385Z,14.07
2023-06-07T23:14:09.092Z,14.00
2023-06-07T23:16:36.339Z,13.90
2023-06-07T23:19:04.705Z,13.69
2023-06-07T23:21:34.094Z,13.48
2023-06-07T23:24:00.803Z,13.65
2023-06-07T23:26:27.450Z,13.80
2023-06-07T23:28:53.920Z,13.64
2023-06-07T23:31:21.458Z,13.46
2023-06-07T23:33:48.048Z,13.43
2023-06-07T23:36:16.175Z,13.25
2023-06-07T23:38:45.817Z,13.21
2023-06-07T23:41:12.368Z,13.12
2023-06-07T23:43:38.943Z,13.08
2023-06-07T23:46:05.582Z,13.02
2023-06-07T23:48:32.074Z,13.05
2023-06-07T23:50:58.654Z,13.00
2023-06-07T23:53:25.441Z,12.93
2023-06-07T23:55:53.986Z,13.01
2023-06-07T23:58:20.595Z,13.05
